Time;durP1;ratioP1;P1;durP2;ratioP2;P2;SDS_P1;SDS_P2;PMS_P1;PMS_P2;Temp;Humidity;BMP_temperature;BMP_pressure;BME280_temperature;BME280_humidity;BME280_pressure;Samples;Min_cycle;Max_cycle;Signal;HPM_P1;HPM_P2
2023/01/11 00:01:06;;;;;;;20.33;4.57;;;5.20;99.90;;;;;;5062565;28;20035;-43
2023/01/11 00:03:31;;;;;;;14.50;3.67;;;5.20;99.90;;;;;;5066691;28;20436;-44
2023/01/11 00:05:58;;;;;;;9.38;2.83;;;5.20;99.90;;;;;;5059993;28;20237;-42
2023/01/11 00:08:25;;;;;;;20.42;3.60;;;5.30;99.90;;;;;;5068646;28;20449;-43
2023/01/11 00:10:52;;;;;;;15.32;2.78;;;5.40;99.90;;;;;;5070748;28;20036;-43
2023/01/11 00:13:18;;;;;;;10.80;3.28;;;5.40;99.90;;;;;;5065781;28;20032;-43
2023/01/11 00:15:44;;;;;;;16.50;3.13;;;5.50;99.90;;;;;;5062673;28;20124;-44
2023/01/11 00:18:11;;;;;;;15.02;3.08;;;5.50;99.90;;;;;;5072438;28;20105;-44
2023/01/11 00:20:40;;;;;;;13.85;3.83;;;5.50;99.90;;;;;;5055075;28;20029;-44
2023/01/11 00:23:07;;;;;;;17.05;3.30;;;5.60;99.90;;;;;;5057563;28;20021;-43
2023/01/11 00:25:33;;;;;;;12.55;3.00;;;5.70;99.90;;;;;;5052596;28;20416;-44
2023/01/11 00:27:58;;;;;;;10.68;2.90;;;5.60;99.90;;;;;;5062393;28;20254;-43
2023/01/11 00:30:24;;;;;;;12.23;2.42;;;5.70;99.90;;;;;;5072378;28;20047;-43
2023/01/11 00:32:55;;;;;;;5.32;2.00;;;5.80;99.90;;;;;;5071872;28;20024;-43
2023/01/11 00:35:21;;;;;;;8.50;2.15;;;5.90;99.90;;;;;;5071873;28;20039;-42
2023/01/11 00:37:46;;;;;;;9.05;2.03;;;6.00;99.90;;;;;;5071637;28;20028;-42
2023/01/11 00:40:12;;;;;;;9.48;2.13;;;6.10;99.90;;;;;;5071796;28;20108;-41
2023/01/11 00:48:08;;;;;;;7.60;2.30;;;6.30;99.90;;;;;;5060098;28;20039;-42
2023/01/11 00:50:36;;;;;;;6.88;1.88;;;6.30;99.90;;;;;;5070191;28;20028;-42
2023/01/11 00:53:03;;;;;;;5.90;1.70;;;6.30;99.90;;;;;;5070894;28;20032;-42
2023/01/11 00:55:30;;;;;;;4.38;1.48;;;6.40;99.90;;;;;;5070274;28;20472;-42
2023/01/11 00:57:57;;;;;;;4.55;1.52;;;6.40;99.90;;;;;;5070243;28;20093;-42
2023/01/11 01:00:24;;;;;;;6.32;1.95;;;6.40;99.90;;;;;;5061026;28;20537;-42
2023/01/11 01:02:50;;;;;;;4.63;1.38;;;6.50;99.90;;;;;;5062723;28;20052;-43
2023/01/11 01:05:16;;;;;;;2.38;1.17;;;6.50;99.90;;;;;;5069173;28;20044;-43
2023/01/11 01:07:42;;;;;;;6.95;2.33;;;6.60;99.90;;;;;;5064627;28;20091;-42
2023/01/11 01:10:09;;;;;;;4.45;1.67;;;6.60;99.90;;;;;;5071501;28;20029;-43
2023/01/11 01:15:19;;;;;;;4.88;1.65;;;6.60;99.90;;;;;;5067066;28;20086;-42
2023/01/11 01:17:45;;;;;;;7.10;1.77;;;6.60;99.90;;;;;;5061258;28;20445;-42
2023/01/11 01:20:11;;;;;;;2.90;1.17;;;6.60;99.90;;;;;;5065853;28;20056;-42
2023/01/11 01:22:37;;;;;;;8.40;1.60;;;6.70;99.90;;;;;;5069452;28;20029;-42
2023/01/11 01:25:06;;;;;;;9.60;2.35;;;6.70;99.90;;;;;;5071016;28;20679;-44
2023/01/11 01:27:33;;;;;;;5.55;1.52;;;6.80;99.90;;;;;;5070879;28;20060;-44
2023/01/11 01:30:04;;;;;;;3.88;1.58;;;6.80;99.90;;;;;;5064239;28;20502;-43
2023/01/11 01:32:30;;;;;;;6.90;1.10;;;6.80;99.90;;;;;;5059300;28;20079;-45
2023/01/11 01:34:56;;;;;;;2.67;1.02;;;6.80;99.90;;;;;;5070905;28;20036;-44
2023/01/11 01:37:22;;;;;;;2.58;1.13;;;6.80;99.90;;;;;;5070869;28;20095;-42
2023/01/11 01:39:47;;;;;;;3.25;1.23;;;6.90;99.90;;;;;;5068504;28;20119;-45
2023/01/11 01:42:16;;;;;;;5.85;1.60;;;6.90;99.90;;;;;;5061716;28;20547;-42
2023/01/11 01:45:03;;;;;;;4.82;1.42;;;7.00;99.90;;;;;;5067732;28;20032;-44
2023/01/11 01:47:50;;;;;;;3.65;1.48;;;7.00;99.90;;;;;;5059481;28;20025;-44
2023/01/11 01:50:28;;;;;;;4.38;1.40;;;6.90;99.90;;;;;;5066192;28;20521;-43
2023/01/11 01:53:08;;;;;;;2.83;1.58;;;7.00;99.90;;;;;;5050786;28;20037;-43
2023/01/11 01:55:39;;;;;;;4.97;1.10;;;7.00;99.90;;;;;;5050507;28;20025;-43
2023/01/11 01:58:11;;;;;;;3.25;1.13;;;7.10;99.90;;;;;;5050627;28;20474;-43
2023/01/11 02:00:42;;;;;;;3.78;1.42;;;7.10;99.90;;;;;;5050300;28;20029;-43
2023/01/11 02:03:12;;;;;;;4.78;1.40;;;7.10;99.90;;;;;;5054917;28;20125;-43
2023/01/11 02:05:38;;;;;;;5.10;1.20;;;7.20;99.90;;;;;;5061949;28;20016;-44
2023/01/11 02:08:10;;;;;;;5.88;1.38;;;7.20;99.90;;;;;;5070210;28;20090;-43
2023/01/11 02:10:36;;;;;;;2.58;1.48;;;7.20;99.90;;;;;;5068993;28;20024;-43
2023/01/11 02:13:09;;;;;;;1.85;1.00;;;7.30;99.90;;;;;;5066171;28;20038;-43
2023/01/11 02:15:37;;;;;;;5.18;1.17;;;7.30;99.90;;;;;;5062041;28;20496;-43
2023/01/11 02:18:08;;;;;;;1.75;1.08;;;7.30;99.90;;;;;;5070488;28;20032;-43
2023/01/11 02:21:18;;;;;;;1.63;1.10;;;7.40;99.90;;;;;;5070627;28;20064;-43
2023/01/11 02:24:06;;;;;;;1.58;0.90;;;7.40;99.90;;;;;;5068326;28;20060;-42
2023/01/11 02:26:37;;;;;;;5.53;1.25;;;7.40;99.90;;;;;;5064114;28;20284;-43
2023/01/11 02:29:16;;;;;;;4.68;1.45;;;7.40;99.90;;;;;;5050055;28;20029;-43
2023/01/11 02:32:23;;;;;;;2.78;1.40;;;7.40;99.90;;;;;;5049401;28;20056;-43
2023/01/11 02:35:19;;;;;;;2.55;1.40;;;7.40;99.90;;;;;;5029404;28;20057;-42
2023/01/11 02:37:48;;;;;;;2.42;0.93;;;7.50;99.90;;;;;;5050056;28;20031;-43
2023/01/11 02:40:26;;;;;;;3.40;1.33;;;7.50;99.90;;;;;;5055334;28;20024;-42
2023/01/11 02:46:20;;;;;;;2.72;1.00;;;7.50;99.90;;;;;;5056959;28;20119;-42
2023/01/11 02:48:49;;;;;;;1.33;0.82;;;7.60;99.90;;;;;;5068951;28;20380;-42
2023/01/11 02:51:32;;;;;;;3.58;1.05;;;7.60;99.90;;;;;;5069556;28;20030;-42
2023/01/11 02:54:03;;;;;;;1.88;0.98;;;7.60;99.90;;;;;;5068708;28;20500;-43
2023/01/11 02:56:34;;;;;;;2.90;1.02;;;7.60;99.90;;;;;;5069445;28;20032;-42
2023/01/11 02:59:01;;;;;;;2.75;0.93;;;7.70;99.90;;;;;;5069145;28;20028;-42
2023/01/11 03:01:26;;;;;;;2.33;1.00;;;7.60;99.90;;;;;;5059309;28;20029;-43
2023/01/11 03:03:52;;;;;;;1.58;1.10;;;7.60;99.90;;;;;;5060942;28;20027;-42
2023/01/11 03:06:29;;;;;;;4.20;1.00;;;7.70;99.90;;;;;;5069192;28;20421;-43
2023/01/11 03:09:32;;;;;;;3.15;0.93;;;7.70;99.90;;;;;;5069597;28;20474;-43
2023/01/11 03:15:08;;;;;;;3.88;0.80;;;7.70;99.90;;;;;;5028945;28;20025;-43
2023/01/11 03:17:59;;;;;;;1.75;0.88;;;7.70;99.90;;;;;;5057194;28;20025;-42
2023/01/11 03:20:33;;;;;;;4.10;1.10;;;7.70;99.90;;;;;;5059453;28;20428;-41
2023/01/11 03:23:12;;;;;;;1.20;0.90;;;7.70;99.90;;;;;;5067273;28;20107;-40
2023/01/11 03:26:09;;;;;;;3.15;1.00;;;7.80;99.90;;;;;;5068867;28;20049;-40
2023/01/11 03:28:44;;;;;;;3.90;0.80;;;7.70;99.90;;;;;;5067614;28;20473;-41
2023/01/11 03:32:07;;;;;;;3.97;1.42;;;7.70;99.90;;;;;;5068994;28;20024;-41
2023/01/11 03:34:36;;;;;;;2.13;0.70;;;7.70;99.90;;;;;;5004841;28;20030;-42
2023/01/11 03:37:04;;;;;;;1.92;1.10;;;7.80;99.90;;;;;;5049021;28;20040;-42
2023/01/11 03:39:44;;;;;;;3.50;1.00;;;7.80;99.90;;;;;;5060489;28;20032;-44
2023/01/11 03:42:15;;;;;;;2.03;1.05;;;7.70;99.90;;;;;;5068446;28;20032;-43
2023/01/11 03:44:49;;;;;;;4.63;1.10;;;7.70;99.90;;;;;;5068054;28;20040;-41
2023/01/11 03:47:18;;;;;;;1.23;0.80;;;7.70;99.90;;;;;;5067750;28;20029;-42
2023/01/11 03:50:07;;;;;;;1.85;0.90;;;7.80;99.90;;;;;;5068599;28;20028;-42
2023/01/11 03:52:37;;;;;;;4.10;1.20;;;7.80;99.90;;;;;;5068438;28;20028;-43
2023/01/11 03:55:07;;;;;;;2.85;1.05;;;7.80;99.90;;;;;;5067678;28;20025;-42
2023/01/11 03:57:36;;;;;;;2.38;1.05;;;7.80;99.90;;;;;;5068744;28;20055;-42
2023/01/11 04:00:05;;;;;;;3.88;1.10;;;7.90;99.90;;;;;;5068688;28;20020;-42
2023/01/11 04:02:38;;;;;;;1.85;1.08;;;8.00;99.90;;;;;;5059638;28;20020;-42
2023/01/11 04:05:05;;;;;;;3.33;1.20;;;8.00;99.90;;;;;;5058635;28;20058;-41
2023/01/11 04:07:30;;;;;;;6.47;1.40;;;8.00;99.90;;;;;;5068535;28;20021;-41
2023/01/11 04:09:57;;;;;;;2.92;0.70;;;8.00;99.90;;;;;;5068836;28;20021;-42
2023/01/11 04:12:23;;;;;;;3.58;0.82;;;8.10;99.90;;;;;;5066744;28;20115;-42
2023/01/11 04:14:49;;;;;;;1.55;0.70;;;8.10;99.90;;;;;;5068476;28;20111;-42
2023/01/11 04:17:15;;;;;;;2.63;0.98;;;8.10;99.90;;;;;;5068803;28;20552;-42
2023/01/11 04:19:40;;;;;;;4.30;1.30;;;8.20;99.90;;;;;;5068490;28;20221;-42
2023/01/11 04:22:06;;;;;;;1.95;0.88;;;8.10;99.90;;;;;;5067972;28;20114;-42
2023/01/11 04:24:31;;;;;;;3.72;1.75;;;8.20;99.90;;;;;;5068622;28;20012;-42
2023/01/11 04:26:57;;;;;;;3.45;1.15;;;8.10;99.90;;;;;;5063812;28;20074;-42
2023/01/11 04:29:23;;;;;;;3.38;1.00;;;8.20;99.90;;;;;;5050677;28;20045;-42
2023/01/11 04:31:49;;;;;;;2.25;1.10;;;8.20;99.90;;;;;;5046782;28;20021;-42
2023/01/11 04:34:14;;;;;;;5.68;1.10;;;8.30;99.90;;;;;;5048892;28;20062;-42
2023/01/11 04:36:40;;;;;;;1.42;0.82;;;8.30;99.90;;;;;;5048398;28;20047;-43
2023/01/11 04:39:09;;;;;;;3.08;0.93;;;8.30;99.90;;;;;;5048523;28;20462;-43
2023/01/11 04:44:24;;;;;;;2.63;1.05;;;8.30;99.90;;;;;;5049136;28;20550;-42
2023/01/11 04:46:51;;;;;;;2.50;1.10;;;8.30;99.90;;;;;;5048432;28;20036;-43
2023/01/11 04:49:16;;;;;;;1.58;0.88;;;8.40;99.90;;;;;;5046845;28;20021;-43
2023/01/11 04:51:42;;;;;;;2.33;1.10;;;8.40;99.90;;;;;;5056580;28;20547;-43
2023/01/11 04:54:08;;;;;;;0.95;0.85;;;8.40;99.90;;;;;;5053797;28;20029;-42
2023/01/11 04:56:33;;;;;;;2.10;0.75;;;8.40;99.90;;;;;;5049335;28;20394;-42
2023/01/11 04:58:59;;;;;;;2.28;1.00;;;8.40;99.90;;;;;;5051956;28;20033;-43
2023/01/11 05:01:25;;;;;;;5.88;1.35;;;8.50;99.90;;;;;;5050245;28;20025;-42
2023/01/11 05:03:51;;;;;;;3.10;0.90;;;8.50;99.90;;;;;;5049923;28;20025;-42
2023/01/11 05:06:21;;;;;;;3.55;1.13;;;8.60;99.90;;;;;;5050363;28;20021;-43
2023/01/11 05:08:47;;;;;;;2.03;1.10;;;8.50;99.90;;;;;;5051971;28;20013;-43
2023/01/11 05:11:14;;;;;;;0.88;0.80;;;8.60;99.90;;;;;;5050091;28;20138;-42
2023/01/11 05:13:40;;;;;;;1.30;0.80;;;8.70;99.90;;;;;;5050686;28;20025;-42
2023/01/11 05:16:13;;;;;;;3.10;0.88;;;8.60;99.90;;;;;;5051334;28;20028;-43
2023/01/11 05:18:42;;;;;;;1.20;0.80;;;8.60;99.90;;;;;;5051302;28;20033;-43
2023/01/11 05:21:10;;;;;;;2.08;1.02;;;8.70;99.90;;;;;;5057403;28;20612;-44
2023/01/11 05:23:36;;;;;;;2.63;0.90;;;8.70;99.90;;;;;;5060939;28;20027;-42
2023/01/11 05:26:07;;;;;;;2.35;1.35;;;8.80;99.90;;;;;;5071507;28;20020;-41
2023/01/11 05:28:33;;;;;;;1.80;0.82;;;8.90;99.90;;;;;;5071087;28;20024;-42
2023/01/11 05:30:59;;;;;;;1.42;0.95;;;8.80;99.90;;;;;;5058155;28;20028;-42
2023/01/11 05:33:25;;;;;;;2.22;1.00;;;8.80;99.90;;;;;;5039577;28;20022;-42
2023/01/11 05:35:57;;;;;;;2.30;1.08;;;8.90;99.90;;;;;;5041956;28;20080;-43
2023/01/11 05:38:23;;;;;;;1.65;0.85;;;8.90;99.90;;;;;;5040420;28;20028;-43
2023/01/11 05:40:57;;;;;;;2.15;0.73;;;8.90;99.90;;;;;;5058014;28;20111;-42
2023/01/11 05:43:24;;;;;;;1.67;1.08;;;8.90;99.90;;;;;;5066595;28;20043;-44
2023/01/11 05:45:50;;;;;;;6.50;1.10;;;9.00;99.90;;;;;;5070164;28;20078;-42
2023/01/11 05:48:16;;;;;;;2.38;1.15;;;9.00;99.90;;;;;;5063782;28;20048;-41
2023/01/11 05:50:42;;;;;;;2.08;1.10;;;9.00;99.90;;;;;;5055471;28;20024;-42
2023/01/11 05:53:10;;;;;;;2.63;1.00;;;9.10;99.90;;;;;;5049991;28;20025;-41
2023/01/11 05:55:36;;;;;;;0.98;0.88;;;9.00;99.90;;;;;;5049922;28;20138;-41
2023/01/11 05:58:04;;;;;;;1.88;0.90;;;9.00;99.90;;;;;;5050395;28;20037;-42
2023/01/11 06:00:33;;;;;;;2.40;1.10;;;9.10;99.90;;;;;;5048826;28;20021;-41
2023/01/11 06:03:01;;;;;;;3.65;1.30;;;9.10;99.90;;;;;;5049788;28;20115;-41
2023/01/11 06:05:26;;;;;;;1.40;0.93;;;9.10;99.90;;;;;;5049148;28;20027;-41
2023/01/11 06:07:53;;;;;;;2.20;1.05;;;9.10;99.90;;;;;;5049261;28;20112;-41
2023/01/11 06:10:18;;;;;;;1.35;0.93;;;9.10;99.90;;;;;;5048653;28;20393;-42
2023/01/11 06:12:49;;;;;;;2.20;1.10;;;9.10;99.90;;;;;;5047732;28;20033;-42
2023/01/11 06:15:15;;;;;;;1.35;0.90;;;9.10;99.90;;;;;;5048898;28;20051;-42
2023/01/11 06:17:41;;;;;;;1.85;0.98;;;9.10;99.90;;;;;;5058844;28;20040;-43
2023/01/11 06:20:08;;;;;;;5.32;1.08;;;9.10;99.90;;;;;;5068180;28;20039;-43
2023/01/11 06:22:35;;;;;;;1.17;0.88;;;9.10;99.90;;;;;;5062393;28;20052;-42
2023/01/11 06:25:01;;;;;;;1.33;0.70;;;9.10;99.90;;;;;;5062089;28;20384;-43
2023/01/11 06:27:26;;;;;;;1.80;0.90;;;9.20;99.90;;;;;;5069865;28;20020;-44
2023/01/11 06:29:52;;;;;;;2.22;0.85;;;9.10;99.90;;;;;;5064278;28;20445;-43
2023/01/11 06:32:17;;;;;;;1.52;0.90;;;9.10;99.90;;;;;;5048797;28;20055;-42
2023/01/11 06:34:43;;;;;;;1.50;0.90;;;9.10;99.90;;;;;;5049479;28;20405;-42
2023/01/11 06:37:09;;;;;;;1.85;0.90;;;9.10;99.90;;;;;;5051701;28;20043;-44
2023/01/11 06:39:35;;;;;;;2.38;1.00;;;9.20;99.90;;;;;;5062633;28;20111;-43
2023/01/11 06:42:01;;;;;;;2.67;1.00;;;9.20;99.90;;;;;;5050107;28;20685;-41
2023/01/11 06:44:26;;;;;;;2.30;0.70;;;9.20;99.90;;;;;;5048524;28;20033;-42
2023/01/11 06:46:52;;;;;;;1.75;1.00;;;9.30;99.90;;;;;;5052517;28;20025;-42
2023/01/11 06:49:18;;;;;;;1.50;0.80;;;9.30;99.90;;;;;;5061179;28;20035;-43
2023/01/11 06:51:44;;;;;;;2.22;0.73;;;9.30;99.90;;;;;;5057424;28;20059;-43
2023/01/11 06:54:10;;;;;;;1.70;0.98;;;9.30;99.90;;;;;;5059280;28;20024;-43
2023/01/11 06:56:35;;;;;;;2.13;0.80;;;9.40;99.90;;;;;;5069247;28;20025;-42
2023/01/11 06:59:01;;;;;;;9.43;1.05;;;9.40;99.90;;;;;;5069587;28;20053;-43
2023/01/11 07:01:28;;;;;;;1.65;0.73;;;9.40;99.90;;;;;;5069221;28;20119;-42
2023/01/11 07:03:54;;;;;;;2.97;1.00;;;9.30;99.90;;;;;;5057387;28;20513;-43
2023/01/11 07:06:23;;;;;;;2.22;0.80;;;9.30;99.90;;;;;;5065281;28;20017;-43
2023/01/11 07:08:48;;;;;;;2.20;0.73;;;9.20;99.90;;;;;;5069048;28;20034;-42
2023/01/11 07:11:14;;;;;;;1.88;0.90;;;9.20;99.90;;;;;;5068968;28;20037;-42
2023/01/11 07:13:40;;;;;;;3.33;1.58;;;9.10;99.90;;;;;;5056621;28;20082;-43
2023/01/11 07:16:05;;;;;;;1.08;0.70;;;9.20;99.90;;;;;;5063022;28;20028;-41
2023/01/11 07:18:32;;;;;;;2.30;0.90;;;9.20;99.90;;;;;;5059772;28;20017;-44
2023/01/11 07:20:57;;;;;;;2.35;0.82;;;9.20;99.90;;;;;;5060095;28;20555;-43
2023/01/11 07:23:23;;;;;;;1.40;0.70;;;9.20;99.90;;;;;;5069297;28;20028;-43
2023/01/11 07:25:49;;;;;;;1.92;1.00;;;9.20;99.90;;;;;;5069914;28;20082;-43
2023/01/11 07:28:15;;;;;;;6.68;4.10;;;9.10;99.90;;;;;;5062443;28;20028;-42
2023/01/11 07:30:43;;;;;;;3.70;1.35;;;9.10;99.90;;;;;;5060317;28;20074;-42
2023/01/11 07:33:10;;;;;;;2.92;1.23;;;9.10;99.90;;;;;;5068321;28;20690;-41
2023/01/11 07:35:36;;;;;;;1.17;0.90;;;9.00;99.90;;;;;;5059675;28;20112;-42
2023/01/11 07:38:01;;;;;;;1.40;1.10;;;8.90;99.90;;;;;;5052642;28;20120;-42
2023/01/11 07:40:27;;;;;;;1.38;0.93;;;8.90;99.90;;;;;;5052831;28;20473;-43
2023/01/11 07:45:40;;;;;;;1.63;1.00;;;8.90;99.90;;;;;;5057389;28;20072;-43
2023/01/11 07:48:08;;;;;;;1.10;1.00;;;8.80;99.90;;;;;;5051975;28;20048;-44
2023/01/11 07:50:36;;;;;;;2.88;1.13;;;8.80;99.90;;;;;;5063831;28;20029;-43
2023/01/11 07:53:01;;;;;;;5.28;1.20;;;8.80;99.90;;;;;;5056183;28;20086;-43
2023/01/11 07:55:27;;;;;;;2.25;1.30;;;8.90;99.90;;;;;;5056673;28;20025;-44
2023/01/11 07:57:56;;;;;;;0.80;0.80;;;8.90;99.90;;;;;;5063695;28;20082;-43
2023/01/11 08:00:23;;;;;;;2.17;1.00;;;8.90;99.90;;;;;;5048626;28;20479;-43
2023/01/11 08:02:51;;;;;;;3.35;1.30;;;8.80;99.90;;;;;;5050522;28;20035;-43
2023/01/11 08:05:18;;;;;;;1.00;0.95;;;8.80;99.90;;;;;;5049178;28;20009;-43
2023/01/11 08:07:43;;;;;;;2.38;1.20;;;8.90;99.90;;;;;;5047558;28;20044;-43
2023/01/11 08:10:10;;;;;;;3.08;1.73;;;8.90;99.90;;;;;;5048625;28;20039;-43
2023/01/11 08:15:35;;;;;;;10.98;6.13;;;8.90;99.90;;;;;;5021709;28;20116;-43
2023/01/11 08:18:03;;;;;;;4.32;2.10;;;9.00;99.90;;;;;;5052091;28;20112;-43
2023/01/11 08:20:28;;;;;;;3.50;1.48;;;9.00;99.90;;;;;;5053182;28;20048;-44
2023/01/11 08:22:55;;;;;;;2.00;1.15;;;9.00;99.90;;;;;;5045190;28;20478;-43
2023/01/11 08:25:21;;;;;;;1.65;1.25;;;9.00;99.90;;;;;;5046858;28;20010;-42
2023/01/11 08:27:47;;;;;;;3.03;1.10;;;9.10;99.90;;;;;;5045663;28;20017;-42
2023/01/11 08:30:13;;;;;;;3.00;1.05;;;9.00;99.90;;;;;;5052771;28;20552;-42
2023/01/11 08:32:39;;;;;;;3.35;1.23;;;9.10;99.90;;;;;;5060903;28;20085;-43
2023/01/11 08:35:05;;;;;;;2.22;1.02;;;9.10;99.90;;;;;;5071769;28;20458;-43
2023/01/11 08:37:31;;;;;;;1.50;1.00;;;9.00;99.90;;;;;;5065151;28;20198;-43
2023/01/11 08:39:57;;;;;;;2.05;1.00;;;9.10;99.90;;;;;;5064389;28;20393;-43
2023/01/11 08:42:23;;;;;;;2.22;0.88;;;9.10;99.90;;;;;;5069541;28;20035;-41
2023/01/11 08:44:48;;;;;;;2.42;1.30;;;9.10;99.90;;;;;;5067260;28;20044;-42
2023/01/11 08:47:14;;;;;;;1.73;1.10;;;9.10;99.90;;;;;;5057698;28;20025;-42
2023/01/11 08:49:41;;;;;;;5.45;1.20;;;9.10;99.90;;;;;;5045669;28;20025;-42
2023/01/11 08:52:12;;;;;;;1.48;1.00;;;9.20;99.90;;;;;;5039745;28;20137;-42
2023/01/11 08:54:39;;;;;;;2.53;1.00;;;9.20;99.90;;;;;;5040718;28;20028;-41
2023/01/11 08:57:05;;;;;;;6.72;1.38;;;9.20;99.90;;;;;;5039375;28;20029;-42
2023/01/11 08:59:30;;;;;;;218.80;145.13;;;9.20;99.90;;;;;;5039475;28;20022;-42
2023/01/11 09:01:56;;;;;;;9.75;5.53;;;9.20;99.90;;;;;;5043404;28;20441;-42
2023/01/11 09:04:22;;;;;;;7.25;2.97;;;9.20;99.90;;;;;;5033355;28;20100;-42
2023/01/11 09:06:47;;;;;;;2.63;1.60;;;9.10;99.90;;;;;;5036538;28;20033;-43
2023/01/11 09:09:13;;;;;;;2.05;1.33;;;9.20;99.90;;;;;;5042156;28;20071;-43
2023/01/11 09:11:55;;;;;;;2.13;1.50;;;9.20;99.90;;;;;;5039117;28;20029;-42
2023/01/11 09:14:23;;;;;;;2.95;1.50;;;9.20;99.90;;;;;;5061016;28;20025;-42
2023/01/11 09:16:50;;;;;;;3.15;1.30;;;9.20;99.90;;;;;;5028918;28;20049;-42
2023/01/11 09:19:16;;;;;;;5.22;1.40;;;9.20;99.90;;;;;;5030747;28;20032;-43
2023/01/11 09:21:43;;;;;;;2.05;1.55;;;9.20;99.90;;;;;;5029024;28;20025;-42
2023/01/11 09:24:09;;;;;;;2.63;1.60;;;9.20;99.90;;;;;;5030404;28;20072;-42
2023/01/11 09:26:38;;;;;;;3.60;1.80;;;9.20;99.90;;;;;;5030831;28;20017;-43
2023/01/11 09:29:04;;;;;;;4.43;1.60;;;9.10;99.90;;;;;;5046862;28;20485;-43
2023/01/11 09:31:30;;;;;;;3.65;1.75;;;9.10;99.90;;;;;;5061404;28;20052;-43
2023/01/11 09:33:56;;;;;;;1.63;1.40;;;9.20;99.90;;;;;;5059756;28;20030;-43
2023/01/11 09:36:22;;;;;;;1.27;1.13;;;9.20;99.90;;;;;;5039015;28;20458;-42
2023/01/11 09:38:51;;;;;;;3.03;1.38;;;9.10;99.90;;;;;;5040850;28;20025;-41
2023/01/11 09:41:59;;;;;;;3.13;1.20;;;9.20;99.90;;;;;;5037627;28;20022;-44
2023/01/11 09:44:26;;;;;;;2.50;1.08;;;9.20;99.90;;;;;;5045198;28;20040;-43
2023/01/11 09:47:14;;;;;;;2.33;1.30;;;9.10;99.90;;;;;;5061539;28;20021;-43
2023/01/11 09:49:43;;;;;;;5.43;1.60;;;9.20;99.90;;;;;;5068336;28;20043;-43
2023/01/11 09:52:27;;;;;;;2.20;1.50;;;9.20;99.90;;;;;;5053267;28;20021;-42
2023/01/11 09:54:53;;;;;;;2.40;1.67;;;9.20;99.90;;;;;;5059988;28;20551;-43
2023/01/11 09:57:29;;;;;;;1.58;1.15;;;9.20;99.90;;;;;;5040211;28;20029;-43
2023/01/11 10:00:26;;;;;;;2.75;1.80;;;9.20;99.90;;;;;;5038195;28;20042;-42
2023/01/11 10:03:09;;;;;;;2.45;1.27;;;9.20;99.90;;;;;;5034332;28;20029;-43
2023/01/11 10:05:42;;;;;;;2.88;1.80;;;9.20;99.90;;;;;;5039925;28;20021;-43
2023/01/11 10:08:54;;;;;;;1.50;1.27;;;9.20;99.90;;;;;;5037444;28;20381;-43
2023/01/11 10:11:47;;;;;;;4.00;1.77;;;9.20;99.90;;;;;;5033863;28;20086;-42
2023/01/11 10:14:28;;;;;;;2.55;1.45;;;9.30;99.90;;;;;;5056238;28;20031;-43
2023/01/11 10:17:06;;;;;;;2.85;1.48;;;9.30;99.90;;;;;;5042505;28;20013;-42
2023/01/11 10:19:39;;;;;;;3.95;1.50;;;9.30;99.90;;;;;;5038456;28;20020;-42
2023/01/11 10:22:15;;;;;;;3.53;1.60;;;9.30;99.90;;;;;;5038307;28;20021;-43
2023/01/11 10:25:09;;;;;;;4.60;1.50;;;9.30;99.90;;;;;;5036741;28;20067;-43
2023/01/11 10:27:39;;;;;;;3.20;1.45;;;9.30;99.90;;;;;;5039560;28;20025;-43
2023/01/11 10:39:58;;;;;;;6.00;4.53;;;9.50;99.90;;;;;;5049432;28;20300;-44
2023/01/11 10:42:27;;;;;;;11.07;4.22;;;9.60;99.90;;;;;;5049077;28;20389;-43
2023/01/11 10:45:02;;;;;;;6.20;1.67;;;9.70;99.90;;;;;;5048690;28;20017;-42
2023/01/11 10:47:41;;;;;;;3.67;1.70;;;9.70;99.90;;;;;;5056718;28;20474;-41
2023/01/11 10:50:50;;;;;;;3.75;1.80;;;9.70;99.90;;;;;;5045363;28;20174;-43
2023/01/11 10:54:11;;;;;;;2.13;1.65;;;9.70;99.90;;;;;;4996970;28;20390;-42
2023/01/11 10:57:14;;;;;;;3.05;1.50;;;9.70;99.90;;;;;;5044150;28;20064;-42
2023/01/11 11:00:07;;;;;;;3.40;1.35;;;9.80;99.90;;;;;;5049209;28;20035;-42
2023/01/11 11:02:45;;;;;;;2.45;1.50;;;9.70;99.90;;;;;;5048975;28;20155;-42
2023/01/11 11:05:32;;;;;;;3.28;1.80;;;9.80;99.90;;;;;;5048628;28;20067;-42
2023/01/11 11:08:12;;;;;;;2.42;1.42;;;9.80;99.90;;;;;;5046035;28;20032;-43
2023/01/11 11:11:08;;;;;;;3.93;1.70;;;9.80;99.90;;;;;;5044415;28;20055;-42
2023/01/11 11:13:45;;;;;;;2.38;1.77;;;9.80;99.90;;;;;;5046667;28;20025;-43
2023/01/11 11:16:23;;;;;;;3.20;1.67;;;9.70;99.90;;;;;;5049021;28;20033;-44
2023/01/11 11:18:54;;;;;;;2.08;1.45;;;9.80;99.90;;;;;;5048839;28;20036;-44
2023/01/11 11:21:24;;;;;;;2.95;1.40;;;9.70;99.90;;;;;;5056378;28;20029;-43
2023/01/11 11:24:08;;;;;;;3.40;1.67;;;9.70;99.90;;;;;;5027258;28;20032;-40
2023/01/11 11:26:41;;;;;;;2.05;1.58;;;9.70;99.90;;;;;;5029293;28;20268;-41
2023/01/11 11:29:10;;;;;;;1.95;1.27;;;9.70;99.90;;;;;;5029309;28;20024;-41
2023/01/11 11:31:41;;;;;;;2.65;1.45;;;9.60;99.90;;;;;;5057642;28;20025;-41
2023/01/11 11:34:20;;;;;;;2.15;1.35;;;9.60;99.90;;;;;;5067764;28;20021;-42
2023/01/11 11:36:51;;;;;;;1.63;1.10;;;9.60;99.90;;;;;;5067799;28;20028;-42
2023/01/11 11:39:30;;;;;;;3.33;1.58;;;9.60;99.90;;;;;;5060034;28;20025;-42
2023/01/11 11:42:06;;;;;;;2.40;1.80;;;9.60;99.90;;;;;;5028946;28;20036;-43
2023/01/11 11:44:32;;;;;;;1.35;1.17;;;9.60;99.90;;;;;;5042487;28;20292;-42
2023/01/11 11:47:18;;;;;;;3.30;1.58;;;9.60;99.90;;;;;;5054687;28;20021;-42
2023/01/11 11:49:44;;;;;;;2.08;1.38;;;9.60;99.90;;;;;;5048967;28;20017;-43
2023/01/11 11:52:16;;;;;;;1.80;1.27;;;9.60;99.90;;;;;;5048068;28;20025;-43
2023/01/11 11:54:56;;;;;;;2.58;1.35;;;9.60;99.90;;;;;;5049104;28;20024;-42
2023/01/11 11:57:28;;;;;;;3.57;1.30;;;9.60;99.90;;;;;;5046149;28;20386;-43
2023/01/11 12:00:25;;;;;;;1.80;1.30;;;9.60;99.90;;;;;;5047120;28;20108;-43
2023/01/11 12:03:02;;;;;;;3.30;1.52;;;9.60;99.90;;;;;;5043321;28;20029;-43
2023/01/11 12:05:28;;;;;;;2.10;1.30;;;9.60;99.90;;;;;;5045784;28;20013;-42
2023/01/11 12:07:54;;;;;;;5.60;1.67;;;9.60;99.90;;;;;;5051367;28;20363;-41
2023/01/11 12:10:22;;;;;;;1.73;1.20;;;9.70;99.90;;;;;;5050632;28;20017;-42
2023/01/11 12:12:51;;;;;;;3.25;1.38;;;9.70;99.90;;;;;;5051937;28;20389;-42
2023/01/11 12:15:22;;;;;;;2.67;1.40;;;9.70;99.90;;;;;;5052282;28;20043;-42
2023/01/11 12:17:48;;;;;;;2.88;1.60;;;9.70;99.90;;;;;;5052487;28;20021;-42
2023/01/11 12:20:33;;;;;;;4.07;1.98;;;9.80;99.90;;;;;;5052768;28;20021;-43
2023/01/11 12:23:13;;;;;;;5.80;2.00;;;9.70;99.90;;;;;;5051992;28;20029;-43
2023/01/11 12:25:54;;;;;;;3.10;1.50;;;9.80;99.90;;;;;;5052381;28;20505;-43
2023/01/11 12:28:39;;;;;;;3.55;1.80;;;9.70;99.90;;;;;;5052404;28;20029;-42
2023/01/11 12:31:38;;;;;;;2.88;1.60;;;9.70;99.90;;;;;;5052043;28;20056;-42
2023/01/11 12:34:29;;;;;;;4.18;1.85;;;9.70;99.90;;;;;;5052006;28;20398;-42
2023/01/11 12:37:14;;;;;;;3.22;1.20;;;9.70;99.90;;;;;;5046036;28;20508;-43
2023/01/11 12:39:59;;;;;;;1.83;1.10;;;9.70;99.90;;;;;;5050616;28;20033;-43
2023/01/11 12:43:00;;;;;;;0.90;0.90;;;9.70;99.90;;;;;;5058333;28;20094;-43
2023/01/11 12:45:29;;;;;;;;;;;9.60;99.90;;;;;;5032212;28;20684;-45
2023/01/11 12:48:07;;;;;;;19.05;9.73;;;9.60;99.90;;;;;;5055755;28;19913;-43
2023/01/11 12:50:56;;;;;;;7.80;5.10;;;9.60;99.90;;;;;;5069714;28;20058;-43
2023/01/11 12:53:36;;;;;;;2.83;1.48;;;9.50;99.90;;;;;;5043936;28;20127;-43
2023/01/11 12:56:41;;;;;;;1.50;1.20;;;9.50;99.90;;;;;;5049498;28;20032;-43
2023/01/11 12:59:26;;;;;;;1.25;0.82;;;9.50;99.90;;;;;;5043941;28;20033;-42
2023/01/11 13:02:05;;;;;;;1.92;1.20;;;9.40;99.90;;;;;;5048769;28;20047;-43
2023/01/11 13:04:56;;;;;;;2.00;1.40;;;9.40;99.90;;;;;;5050218;28;20032;-43
2023/01/11 13:07:28;;;;;;;1.50;1.08;;;9.40;99.90;;;;;;5048551;28;20092;-43
2023/01/11 13:10:18;;;;;;;1.80;1.10;;;9.40;99.90;;;;;;5050015;28;20378;-42
2023/01/11 13:12:52;;;;;;;2.63;1.30;;;9.40;99.90;;;;;;5046905;28;20051;-43
2023/01/11 13:15:40;;;;;;;3.20;1.20;;;9.40;99.90;;;;;;5045676;28;20051;-43
2023/01/11 13:18:17;;;;;;;1.75;1.08;;;9.40;99.90;;;;;;5057135;28;20036;-42
2023/01/11 13:20:52;;;;;;;2.60;1.20;;;9.40;99.90;;;;;;5049657;28;20029;-42
2023/01/11 13:23:47;;;;;;;1.20;1.10;;;9.30;99.90;;;;;;5057236;28;20386;-42
2023/01/11 13:26:23;;;;;;;1.73;1.23;;;9.30;99.90;;;;;;5027885;28;20034;-42
2023/01/11 13:29:05;;;;;;;2.13;1.48;;;9.30;99.90;;;;;;5029826;28;20022;-42
2023/01/11 13:31:33;;;;;;;1.02;0.98;;;9.30;99.90;;;;;;5028851;28;20087;-43
2023/01/11 13:34:26;;;;;;;1.52;1.10;;;9.30;99.90;;;;;;5028483;28;20025;-42
2023/01/11 13:37:00;;;;;;;3.67;1.73;;;9.30;99.90;;;;;;5029714;28;20173;-42
2023/01/11 13:39:39;;;;;;;3.88;1.50;;;9.30;99.90;;;;;;5030555;28;20064;-43
2023/01/11 13:42:19;;;;;;;1.65;1.30;;;9.30;99.90;;;;;;5029592;28;20302;-42
2023/01/11 13:44:57;;;;;;;2.50;1.20;;;9.30;99.90;;;;;;5030009;28;20182;-42
2023/01/11 13:47:30;;;;;;;3.35;1.45;;;9.20;99.90;;;;;;5030237;28;20259;-43
2023/01/11 13:50:11;;;;;;;2.47;1.10;;;9.20;99.90;;;;;;5029951;28;20501;-44
2023/01/11 13:52:50;;;;;;;2.20;1.20;;;9.30;99.90;;;;;;5050405;28;20452;-42
2023/01/11 13:55:38;;;;;;;1.83;1.02;;;9.30;99.90;;;;;;5060952;28;20498;-42
2023/01/11 13:58:27;;;;;;;2.30;1.20;;;9.30;99.90;;;;;;5048950;28;20052;-42